Time;durP1;ratioP1;P1;durP2;ratioP2;P2;SDS_P1;SDS_P2;PMS_P1;PMS_P2;Temp;Humidity;BMP_temperature;BMP_pressure;BME280_temperature;BME280_humidity;BME280_pressure;Samples;Min_cycle;Max_cycle;Signal;HPM_P1;HPM_P2
2023/10/02 00:08:04;;;;;;;14.10;7.57;;;11.40;99.90;;;;;;5461519;23;20596;-80
2023/10/02 00:10:41;;;;;;;15.03;7.37;;;11.40;99.90;;;;;;4987995;28;20267;-79
2023/10/02 00:13:30;;;;;;;13.60;7.47;;;11.40;99.90;;;;;;4970162;28;20248;-79
2023/10/02 00:16:09;;;;;;;15.30;7.50;;;11.40;99.90;;;;;;4971114;28;20307;-79
2023/10/02 00:18:48;;;;;;;14.60;7.33;;;11.40;99.90;;;;;;4988671;28;20268;-80
2023/10/02 00:42:54;;;;;;;14.57;8.17;;;11.30;99.90;;;;;;4793644;29;20199;-82
2023/10/02 00:45:38;;;;;;;15.93;8.23;;;11.40;99.90;;;;;;4778157;30;20215;-85
2023/10/02 00:48:25;;;;;;;16.63;7.97;;;11.40;99.90;;;;;;4740000;30;20209;-81
2023/10/02 00:51:11;;;;;;;14.97;7.97;;;11.40;99.90;;;;;;4738813;30;20315;-79
2023/10/02 00:53:48;;;;;;;14.20;7.87;;;11.40;99.90;;;;;;4754005;30;20211;-81
2023/10/02 00:56:35;;;;;;;12.23;7.53;;;11.40;99.90;;;;;;4768572;30;20228;-81
2023/10/02 00:59:23;;;;;;;13.90;8.07;;;11.30;99.90;;;;;;4740274;30;20209;-84
2023/10/02 01:02:04;;;;;;;13.60;7.80;;;11.30;99.90;;;;;;4769424;30;20315;-85
2023/10/02 01:04:44;;;;;;;13.67;7.50;;;11.40;99.90;;;;;;4773836;29;20245;-83
2023/10/02 01:07:47;;;;;;;14.67;7.87;;;11.30;99.90;;;;;;4788612;29;20233;-85
2023/10/02 01:10:36;;;;;;;14.30;8.10;;;11.30;99.90;;;;;;4804743;29;20581;-85
2023/10/02 01:13:18;;;;;;;15.17;8.20;;;11.20;99.90;;;;;;4804585;29;20216;-82
2023/10/02 01:16:07;;;;;;;18.70;9.20;;;11.20;99.90;;;;;;4804226;29;20666;-85
2023/10/02 01:18:55;;;;;;;16.17;8.57;;;11.10;99.90;;;;;;4856736;29;20258;-83
2023/10/02 01:21:40;;;;;;;15.87;8.70;;;11.20;99.90;;;;;;4885449;29;20275;-85
2023/10/02 01:24:22;;;;;;;16.57;8.33;;;11.20;99.90;;;;;;4917122;29;20199;-85
2023/10/02 01:26:54;;;;;;;14.50;8.40;;;11.20;99.90;;;;;;4900788;29;20363;-85
2023/10/02 01:30:14;;;;;;;15.63;8.43;;;11.20;99.90;;;;;;4917455;29;20198;-79
2023/10/02 01:36:36;;;;;;;17.87;8.50;;;11.40;99.90;;;;;;4858450;29;20234;-81
2023/10/02 01:39:34;;;;;;;17.00;8.37;;;11.40;99.90;;;;;;4843367;29;20210;-79
2023/10/02 01:42:20;;;;;;;16.43;8.80;;;11.40;99.90;;;;;;4858370;29;20273;-80
2023/10/02 01:44:55;;;;;;;18.33;7.97;;;11.30;99.90;;;;;;4858657;29;20194;-81
2023/10/02 01:48:14;;;;;;;;;;;;;;;;;;;;;
2023/10/02 01:51:31;;;;;;;17.10;8.07;;;11.40;99.90;;;;;;4788641;29;20232;-79
2023/10/02 01:54:22;;;;;;;16.17;7.90;;;11.40;99.90;;;;;;4749695;30;20636;-79
2023/10/02 01:57:24;;;;;;;16.53;8.37;;;11.50;99.90;;;;;;4749654;30;20186;-81
2023/10/02 02:00:13;;;;;;;14.77;7.87;;;11.50;99.90;;;;;;4734715;30;20263;-81
2023/10/02 02:03:22;;;;;;;14.17;7.67;;;11.50;99.90;;;;;;4736219;30;20206;-79
2023/10/02 02:06:08;;;;;;;14.80;8.13;;;11.40;99.90;;;;;;4736356;30;20306;-81
2023/10/02 02:09:08;;;;;;;15.03;7.70;;;11.30;99.90;;;;;;4735605;30;20197;-80
2023/10/02 02:14:56;;;;;;;16.47;8.03;;;11.40;99.90;;;;;;4781974;29;20252;-83
2023/10/02 02:17:27;;;;;;;16.20;8.03;;;11.50;99.90;;;;;;4839215;29;20210;-85
2023/10/02 02:20:11;;;;;;;14.57;8.27;;;11.40;99.90;;;;;;4839558;29;20366;-79
2023/10/02 02:23:07;;;;;;;14.33;7.83;;;11.40;99.90;;;;;;4839252;29;20209;-79
2023/10/02 02:25:49;;;;;;;18.00;8.53;;;11.50;99.90;;;;;;4839934;29;20232;-79
2023/10/02 02:28:28;;;;;;;14.63;7.70;;;11.60;99.90;;;;;;4839997;29;20222;-84
2023/10/02 02:31:06;;;;;;;14.63;8.33;;;11.60;99.90;;;;;;4877240;29;20266;-79
2023/10/02 02:33:43;;;;;;;13.07;8.00;;;11.60;99.90;;;;;;4916048;29;20239;-80
2023/10/02 02:36:14;;;;;;;19.70;8.10;;;11.60;99.90;;;;;;4913395;29;20686;-79
2023/10/02 02:39:08;;;;;;;16.80;8.47;;;11.60;99.90;;;;;;4914549;29;20199;-84
2023/10/02 02:42:08;;;;;;;14.13;7.50;;;11.80;99.90;;;;;;4883723;29;20195;-81
2023/10/02 02:44:49;;;;;;;13.97;8.00;;;11.80;99.90;;;;;;4899214;29;20218;-84
2023/10/02 02:47:23;;;;;;;15.70;8.30;;;11.80;99.90;;;;;;4915075;29;20570;-84
2023/10/02 02:49:58;;;;;;;15.40;7.83;;;11.80;99.90;;;;;;4898762;29;20199;-85
2023/10/02 02:52:33;;;;;;;14.50;7.40;;;11.80;99.90;;;;;;4899608;29;20254;-84
2023/10/02 02:55:22;;;;;;;14.47;8.00;;;11.90;99.90;;;;;;4884523;29;20690;-81
2023/10/02 02:58:06;;;;;;;19.10;8.17;;;11.80;99.90;;;;;;4885222;29;20211;-85
2023/10/02 03:00:44;;;;;;;13.60;7.40;;;12.00;99.90;;;;;;4915398;29;20271;-85
2023/10/02 03:03:32;;;;;;;15.27;7.70;;;11.90;99.90;;;;;;4914745;29;20192;-83
2023/10/02 03:06:22;;;;;;;15.93;7.63;;;11.90;99.90;;;;;;4898995;29;20224;-83
2023/10/02 03:08:53;;;;;;;13.90;7.23;;;12.00;99.90;;;;;;4914704;29;20215;-85
2023/10/02 03:11:36;;;;;;;13.53;7.80;;;12.10;99.90;;;;;;4914871;29;20489;-85
2023/10/02 03:14:12;;;;;;;14.00;7.10;;;12.10;99.90;;;;;;4914532;29;20223;-79
2023/10/02 03:16:51;;;;;;;14.03;7.43;;;12.20;99.90;;;;;;4914839;29;20215;-79
2023/10/02 03:22:27;;;;;;;13.67;7.10;;;12.10;99.90;;;;;;4878752;29;20224;-81
2023/10/02 03:28:00;;;;;;;13.43;7.63;;;12.20;99.90;;;;;;4878924;29;20210;-84
2023/10/02 03:34:48;;;;;;;17.27;8.03;;;12.20;99.90;;;;;;4747353;30;20237;-86
2023/10/02 03:37:52;;;;;;;12.87;7.30;;;12.20;99.90;;;;;;5157604;23;20269;-85
2023/10/02 03:40:35;;;;;;;11.90;7.50;;;12.20;99.90;;;;;;4937835;29;20233;-79
2023/10/02 03:43:34;;;;;;;15.90;7.60;;;12.20;99.90;;;;;;4951457;29;20229;-85
2023/10/02 03:46:06;;;;;;;17.60;7.70;;;12.20;99.90;;;;;;4920364;29;20198;-85
2023/10/02 03:48:51;;;;;;;13.20;7.57;;;12.20;99.90;;;;;;4935829;29;20198;-86
2023/10/02 03:51:41;;;;;;;13.40;7.30;;;12.20;99.90;;;;;;4922487;29;20252;-86
2023/10/02 03:54:29;;;;;;;15.47;7.47;;;12.20;99.90;;;;;;4922701;29;20314;-86
2023/10/02 03:57:50;;;;;;;12.40;6.80;;;12.30;99.90;;;;;;4933785;29;20206;-79
2023/10/02 04:00:43;;;;;;;13.43;6.80;;;12.30;99.90;;;;;;4935357;29;20650;-85
2023/10/02 04:03:55;;;;;;;10.67;5.70;;;12.40;99.90;;;;;;4936135;29;20226;-85
2023/10/02 04:09:28;;;;;;;9.30;5.30;;;12.40;99.90;;;;;;4841382;29;20611;-85
2023/10/02 04:12:17;;;;;;;10.70;6.00;;;12.40;99.90;;;;;;4857224;29;20281;-86
2023/10/02 04:14:48;;;;;;;10.77;5.70;;;12.30;99.90;;;;;;4841896;29;20674;-84
2023/10/02 04:20:04;;;;;;;13.00;6.00;;;12.20;99.90;;;;;;4857567;29;20633;-85
2023/10/02 04:22:39;;;;;;;10.10;5.73;;;12.20;99.90;;;;;;4859870;29;20229;-85
2023/10/02 04:25:13;;;;;;;10.23;5.70;;;12.20;99.90;;;;;;4860670;29;20772;-80
2023/10/02 04:30:24;;;;;;;10.53;5.50;;;12.20;99.90;;;;;;4859724;29;20681;-80
2023/10/02 04:33:07;;;;;;;10.83;5.47;;;12.00;99.90;;;;;;4844876;29;20681;-80
2023/10/02 04:35:44;;;;;;;12.90;5.80;;;12.00;99.90;;;;;;4860789;29;20232;-79
2023/10/02 04:38:47;;;;;;;10.73;5.77;;;12.00;99.90;;;;;;4860130;29;20245;-78
2023/10/02 04:41:19;;;;;;;13.53;6.10;;;12.00;99.90;;;;;;4860128;29;20206;-85
2023/10/02 04:43:57;;;;;;;9.13;5.30;;;12.00;99.90;;;;;;4873291;29;20261;-84
2023/10/02 04:46:34;;;;;;;12.33;5.40;;;11.90;99.90;;;;;;4904659;29;20198;-85
2023/10/02 04:49:16;;;;;;;10.00;5.67;;;11.90;99.90;;;;;;4956965;29;20269;-84
2023/10/02 04:51:59;;;;;;;11.00;5.60;;;11.80;99.90;;;;;;4956328;28;20234;-85
2023/10/02 04:54:39;;;;;;;9.43;5.60;;;11.90;99.90;;;;;;4940407;29;20230;-83
2023/10/02 04:57:17;;;;;;;10.70;5.77;;;11.70;99.90;;;;;;4941187;29;20592;-79
2023/10/02 05:00:19;;;;;;;8.63;5.33;;;11.70;99.90;;;;;;4923321;29;20650;-84
2023/10/02 05:03:09;;;;;;;11.77;6.40;;;11.60;99.90;;;;;;4923203;29;20277;-79
2023/10/02 05:05:53;;;;;;;12.43;5.53;;;11.60;99.90;;;;;;4938929;29;20219;-79
2023/10/02 05:11:06;;;;;;;10.20;6.00;;;11.50;99.90;;;;;;4859885;29;20229;-83
2023/10/02 05:16:33;;;;;;;13.00;5.83;;;11.70;99.90;;;;;;4859483;29;20701;-84
2023/10/02 05:19:09;;;;;;;11.47;6.37;;;11.80;99.90;;;;;;4859572;29;20601;-83
2023/10/02 05:21:50;;;;;;;12.67;5.87;;;11.80;99.90;;;;;;4859847;29;20237;-83
2023/10/02 05:24:20;;;;;;;9.80;6.23;;;11.90;99.90;;;;;;4843986;29;20701;-83
2023/10/02 05:26:51;;;;;;;11.73;6.20;;;12.10;99.90;;;;;;4901449;29;20645;-78
2023/10/02 05:29:41;;;;;;;12.73;6.83;;;11.90;99.90;;;;;;4955867;29;20194;-78
2023/10/02 05:32:23;;;;;;;14.33;6.80;;;12.10;99.90;;;;;;4938779;29;20712;-78
2023/10/02 05:38:08;;;;;;;12.03;6.43;;;12.20;99.90;;;;;;4928211;29;20248;-80
2023/10/02 05:40:53;;;;;;;11.53;6.33;;;12.30;99.90;;;;;;4935507;29;20223;-80
2023/10/02 05:43:47;;;;;;;12.63;6.67;;;12.40;99.90;;;;;;4935242;29;20285;-80
2023/10/02 05:46:16;;;;;;;13.93;6.67;;;12.40;99.90;;;;;;4918690;29;20254;-80
2023/10/02 05:49:00;;;;;;;10.77;6.90;;;12.40;99.90;;;;;;4937400;29;20195;-79
2023/10/02 05:51:55;;;;;;;10.30;5.90;;;12.50;99.90;;;;;;4932539;29;20447;-84
2023/10/02 05:54:47;;;;;;;12.20;6.77;;;12.50;99.90;;;;;;4917870;29;20195;-83
2023/10/02 05:57:19;;;;;;;10.50;6.40;;;12.50;99.90;;;;;;4916673;29;20219;-85
2023/10/02 06:00:16;;;;;;;12.33;6.90;;;12.60;99.90;;;;;;4915828;29;20202;-78
2023/10/02 06:02:58;;;;;;;11.37;6.87;;;12.70;99.90;;;;;;4915248;29;20195;-78
2023/10/02 06:05:29;;;;;;;13.30;6.73;;;12.70;99.90;;;;;;4916276;29;20186;-79
2023/10/02 06:08:10;;;;;;;10.13;6.50;;;12.70;99.90;;;;;;4916274;29;20236;-79
2023/10/02 06:11:08;;;;;;;12.80;6.80;;;12.80;99.90;;;;;;4915871;29;20199;-78
2023/10/02 06:13:39;;;;;;;9.77;6.20;;;12.90;99.90;;;;;;4915902;29;20623;-77
2023/10/02 06:16:08;;;;;;;11.50;7.00;;;12.90;99.90;;;;;;4914627;29;20619;-78
2023/10/02 06:18:40;;;;;;;11.63;6.47;;;13.00;99.90;;;;;;4916625;29;20187;-77
2023/10/02 06:21:14;;;;;;;14.97;6.43;;;13.10;99.90;;;;;;4917245;29;20287;-79
2023/10/02 06:23:48;;;;;;;12.97;7.10;;;13.20;99.90;;;;;;4915418;29;20199;-78
2023/10/02 06:26:49;;;;;;;11.87;6.47;;;13.30;99.90;;;;;;4914988;29;20605;-86
2023/10/02 06:29:35;;;;;;;12.07;6.37;;;13.40;99.90;;;;;;4916139;29;20203;-84
2023/10/02 06:32:10;;;;;;;13.13;7.50;;;13.50;99.90;;;;;;4917376;29;20196;-78
2023/10/02 06:34:39;;;;;;;13.17;6.43;;;13.50;99.90;;;;;;4914559;29;20222;-79
2023/10/02 06:37:13;;;;;;;12.97;6.73;;;13.60;99.90;;;;;;4924096;29;20254;-87
2023/10/02 06:39:47;;;;;;;12.80;6.30;;;13.70;99.90;;;;;;4934614;29;20539;-78
2023/10/02 06:42:25;;;;;;;13.20;6.43;;;13.70;99.90;;;;;;4934644;29;20191;-86
2023/10/02 06:44:53;;;;;;;12.93;6.23;;;13.80;99.90;;;;;;4934295;29;20671;-86
2023/10/02 06:47:28;;;;;;;11.00;5.90;;;13.80;99.90;;;;;;4918694;29;20198;-86
2023/10/02 06:50:27;;;;;;;14.27;6.20;;;13.80;99.90;;;;;;4934925;29;20211;-78
2023/10/02 06:52:59;;;;;;;12.80;6.57;;;13.70;99.90;;;;;;4902483;29;20293;-87
2023/10/02 06:55:37;;;;;;;13.13;6.20;;;13.90;99.90;;;;;;4902421;29;20198;-88
2023/10/02 06:58:07;;;;;;;12.70;6.13;;;14.00;99.90;;;;;;4934637;29;20210;-88
2023/10/02 07:01:01;;;;;;;9.70;5.77;;;14.10;99.90;;;;;;4918167;29;20186;-88
2023/10/02 07:03:50;;;;;;;14.17;6.20;;;14.10;99.90;;;;;;4919137;29;20221;-87
2023/10/02 07:06:21;;;;;;;11.83;6.00;;;14.10;99.90;;;;;;4917975;29;20225;-87
2023/10/02 07:09:11;;;;;;;11.87;5.90;;;14.20;99.90;;;;;;4932788;29;20196;-87
2023/10/02 07:11:51;;;;;;;12.50;6.00;;;14.40;99.90;;;;;;4901255;29;20289;-79
2023/10/02 07:14:35;;;;;;;10.97;5.70;;;14.50;99.90;;;;;;4933524;29;20280;-87
2023/10/02 07:17:26;;;;;;;12.40;5.90;;;14.70;99.90;;;;;;4935257;29;20242;-77
2023/10/02 07:20:00;;;;;;;13.47;6.30;;;14.80;99.90;;;;;;4933797;29;20763;-87
2023/10/02 07:22:34;;;;;;;11.17;5.80;;;14.80;99.90;;;;;;4933420;29;20252;-77
2023/10/02 07:25:04;;;;;;;13.67;5.70;;;14.90;99.90;;;;;;4934282;29;20194;-77
2023/10/02 07:27:40;;;;;;;12.30;6.37;;;15.00;99.90;;;;;;4933719;29;20588;-77
2023/10/02 07:30:29;;;;;;;9.77;6.13;;;15.10;99.90;;;;;;4934346;29;20654;-87
2023/10/02 07:33:03;;;;;;;12.70;5.80;;;15.30;99.90;;;;;;4917332;29;20203;-84
2023/10/02 07:35:52;;;;;;;10.60;5.90;;;15.40;99.90;;;;;;4934040;29;20225;-79
2023/10/02 07:38:32;;;;;;;13.30;5.83;;;15.60;99.90;;;;;;4900774;29;20269;-88
2023/10/02 07:41:07;;;;;;;14.37;5.90;;;15.70;99.90;;;;;;4935270;29;20179;-85
2023/10/02 07:44:07;;;;;;;14.73;5.37;;;15.80;99.90;;;;;;4902565;29;20716;-87
2023/10/02 07:47:06;;;;;;;12.10;5.57;;;15.80;99.90;;;;;;4917571;29;20191;-87
2023/10/02 07:49:55;;;;;;;13.40;5.63;;;15.70;99.90;;;;;;4934172;29;20285;-78
2023/10/02 07:52:29;;;;;;;14.83;6.03;;;15.90;99.90;;;;;;4934665;29;20298;-79
2023/10/02 07:55:10;;;;;;;10.07;5.27;;;16.10;99.90;;;;;;4934396;29;20194;-86
2023/10/02 07:57:41;;;;;;;15.60;6.10;;;16.20;99.90;;;;;;4921932;29;20221;-88
2023/10/02 08:06:21;;;;;;;11.63;5.60;;;16.50;99.90;;;;;;4938561;29;20335;-86
2023/10/02 08:11:42;;;;;;;11.33;5.20;;;16.50;99.90;;;;;;4941889;29;20211;-86
2023/10/02 08:17:08;;;;;;;11.10;5.37;;;16.70;99.90;;;;;;4941595;29;20238;-86
2023/10/02 08:19:39;;;;;;;11.83;5.00;;;16.90;99.90;;;;;;4909896;29;20265;-87
2023/10/02 08:22:07;;;;;;;10.07;5.57;;;17.20;99.90;;;;;;4905687;29;20221;-79
2023/10/02 08:24:48;;;;;;;12.13;4.97;;;17.60;99.90;;;;;;4937298;29;20254;-77
2023/10/02 08:27:23;;;;;;;10.60;5.30;;;17.60;99.90;;;;;;4937857;29;20283;-78
2023/10/02 08:29:56;;;;;;;11.80;5.00;;;17.80;99.90;;;;;;4936728;29;20187;-78
2023/10/02 08:32:33;;;;;;;11.40;5.40;;;17.90;99.90;;;;;;4937669;29;20199;-87
2023/10/02 08:35:13;;;;;;;9.60;4.57;;;18.00;99.90;;;;;;4938537;29;20226;-86
2023/10/02 08:37:54;;;;;;;10.10;5.00;;;18.10;99.90;;;;;;4903588;29;20782;-87
2023/10/02 08:40:32;;;;;;;11.03;4.60;;;18.30;99.90;;;;;;4916568;29;20328;-76
2023/10/02 08:43:05;;;;;;;11.17;4.80;;;18.50;99.90;;;;;;4918651;29;20230;-85
2023/10/02 08:45:34;;;;;;;12.70;4.70;;;18.70;99.90;;;;;;4843915;29;20217;-76
2023/10/02 08:48:07;;;;;;;13.13;5.20;;;18.80;99.90;;;;;;4860230;29;20210;-86
2023/10/02 08:50:49;;;;;;;10.23;4.87;;;18.90;99.90;;;;;;4860828;29;20324;-77
2023/10/02 08:53:24;;;;;;;11.77;4.63;;;18.90;99.90;;;;;;4858909;29;20217;-79
2023/10/02 08:56:05;;;;;;;10.07;4.77;;;19.00;99.90;;;;;;4844100;29;20194;-77
2023/10/02 08:58:35;;;;;;;11.40;4.57;;;18.90;99.90;;;;;;4861446;29;20300;-87
2023/10/02 09:06:44;;;;;;;13.27;4.57;;;19.00;99.90;;;;;;4918252;29;20219;-86
2023/10/02 09:09:54;;;;;;;11.53;4.50;;;19.20;99.90;;;;;;4918525;29;20203;-87
2023/10/02 09:12:29;;;;;;;11.57;4.37;;;19.20;99.90;;;;;;4915936;29;20180;-86
2023/10/02 09:15:24;;;;;;;9.93;4.10;;;19.30;99.90;;;;;;4917805;29;20595;-87
2023/10/02 09:18:22;;;;;;;12.83;4.40;;;19.50;99.90;;;;;;4915481;29;20223;-77
2023/10/02 09:21:13;;;;;;;9.57;4.00;;;19.60;99.90;;;;;;4916193;29;20208;-85
2023/10/02 09:23:51;;;;;;;10.30;4.63;;;19.50;99.90;;;;;;4916454;29;20215;-77
2023/10/02 09:26:31;;;;;;;7.93;3.90;;;19.60;99.90;;;;;;4917218;29;20203;-79
2023/10/02 09:29:07;;;;;;;7.20;3.63;;;19.60;99.90;;;;;;4915833;29;20592;-79
2023/10/02 09:31:39;;;;;;;10.37;4.17;;;19.80;99.90;;;;;;4915212;29;20255;-86
2023/10/02 09:34:11;;;;;;;7.93;3.97;;;20.00;99.90;;;;;;4917158;29;20196;-79
2023/10/02 09:37:11;;;;;;;13.10;3.90;;;20.20;99.90;;;;;;4925143;29;20253;-86
2023/10/02 09:40:16;;;;;;;8.53;3.70;;;20.10;99.90;;;;;;4918555;29;20230;-78
2023/10/02 09:42:56;;;;;;;9.40;3.80;;;20.40;99.90;;;;;;4918564;29;20677;-87
2023/10/02 09:45:31;;;;;;;8.73;3.97;;;20.30;99.90;;;;;;4919149;29;20335;-87
2023/10/02 09:48:05;;;;;;;7.20;3.33;;;20.80;99.90;;;;;;4936728;29;20200;-78
2023/10/02 09:50:46;;;;;;;11.27;3.60;;;21.20;99.90;;;;;;4935871;29;21841;-87
2023/10/02 09:53:20;;;;;;;8.73;3.70;;;21.40;99.90;;;;;;4936011;29;20293;-87
2023/10/02 09:56:03;;;;;;;8.70;4.00;;;21.70;99.90;;;;;;4935173;29;20195;-78
2023/10/02 09:58:37;;;;;;;9.70;3.60;;;21.90;99.90;;;;;;4917725;29;20294;-79
2023/10/02 10:03:59;;;;;;;8.77;3.67;;;22.30;99.90;;;;;;4935210;29;20243;-77
2023/10/02 10:06:48;;;;;;;8.17;3.43;;;23.00;99.90;;;;;;4935427;29;20241;-88
2023/10/02 10:09:25;;;;;;;10.50;3.80;;;23.40;99.90;;;;;;4919047;29;20587;-88
2023/10/02 10:14:54;;;;;;;10.73;3.60;;;23.80;99.90;;;;;;4937704;29;20282;-79
2023/10/02 10:17:22;;;;;;;7.40;3.65;;;24.50;99.90;;;;;;4935608;29;20720;-86
2023/10/02 10:20:08;;;;;;;7.10;3.60;;;25.00;99.90;;;;;;4934601;29;20198;-87
2023/10/02 10:22:50;;;;;;;6.15;3.28;;;25.60;99.90;;;;;;4918993;29;20215;-85
2023/10/02 10:25:33;;;;;;;9.82;3.53;;;25.70;99.90;;;;;;4917084;29;20629;-86
2023/10/02 10:28:09;;;;;;;6.82;3.40;;;26.00;99.90;;;;;;4935629;29;20195;-77
2023/10/02 10:30:56;;;;;;;9.55;3.20;;;25.90;99.90;;;;;;4904252;29;20211;-86
2023/10/02 10:33:40;;;;;;;8.20;3.03;;;26.00;99.90;;;;;;4920869;29;20275;-87
2023/10/02 10:36:41;;;;;;;8.75;3.35;;;26.50;99.90;;;;;;4917795;29;20210;-83
2023/10/02 10:39:48;;;;;;;6.53;2.70;;;26.80;99.90;;;;;;4935778;29;20230;-84
2023/10/02 10:42:23;;;;;;;4.90;2.63;;;27.00;99.90;;;;;;4935650;29;20206;-84
2023/10/02 10:45:00;;;;;;;8.35;2.75;;;27.00;99.90;;;;;;4919939;29;20729;-85
2023/10/02 10:47:38;;;;;;;6.82;2.92;;;27.50;99.90;;;;;;4918252;29;20191;-77
2023/10/02 10:50:26;;;;;;;5.43;2.50;;;28.00;99.90;;;;;;4934486;29;20278;-77
2023/10/02 10:53:26;;;;;;;4.53;2.50;;;28.30;99.30;;;;;;4917738;29;20199;-77
2023/10/02 10:55:54;;;;;;;6.18;2.40;;;28.10;96.20;;;;;;4934896;29;20194;-76
2023/10/02 10:58:37;;;;;;;5.53;2.65;;;28.00;95.70;;;;;;4917554;29;20682;-86
2023/10/02 11:01:07;;;;;;;6.88;2.40;;;28.20;94.90;;;;;;4934325;29;20222;-82
2023/10/02 11:03:40;;;;;;;6.82;2.60;;;28.30;93.50;;;;;;4918618;29;20285;-76
2023/10/02 11:06:15;;;;;;;5.72;2.53;;;28.30;93.20;;;;;;4934191;29;20637;-87
2023/10/02 11:09:12;;;;;;;5.80;2.42;;;27.70;92.40;;;;;;4934305;29;20643;-75
2023/10/02 11:11:49;;;;;;;6.88;2.88;;;27.80;92.30;;;;;;4933734;29;20289;-77
2023/10/02 11:14:34;;;;;;;4.75;2.20;;;27.10;92.90;;;;;;4934003;29;20676;-87
2023/10/02 11:17:05;;;;;;;5.10;2.20;;;27.60;92.50;;;;;;4934381;29;20202;-75
2023/10/02 11:19:51;;;;;;;5.72;2.30;;;27.90;91.60;;;;;;4915835;29;20222;-84
2023/10/02 11:22:22;;;;;;;5.88;2.42;;;28.20;92.20;;;;;;4917296;29;20581;-84
2023/10/02 11:24:57;;;;;;;5.82;2.60;;;29.00;91.20;;;;;;4902147;29;20202;-76
2023/10/02 11:27:29;;;;;;;7.65;2.30;;;28.90;89.40;;;;;;4933607;29;20201;-84
2023/10/02 11:30:08;;;;;;;6.40;2.65;;;28.60;88.70;;;;;;4916098;29;20202;-85
2023/10/02 11:32:58;;;;;;;6.18;2.40;;;28.80;87.30;;;;;;4934033;29;20642;-85
2023/10/02 11:35:37;;;;;;;4.72;2.45;;;28.90;84.70;;;;;;4933901;29;20201;-83
2023/10/02 11:38:09;;;;;;;5.88;2.38;;;28.90;83.50;;;;;;4917931;29;20242;-75
2023/10/02 11:40:44;;;;;;;3.63;1.95;;;29.20;81.80;;;;;;4916954;29;20198;-76
2023/10/02 11:43:15;;;;;;;6.40;2.28;;;29.40;82.10;;;;;;4933635;29;20597;-82
2023/10/02 11:45:52;;;;;;;7.20;2.20;;;29.50;80.60;;;;;;4918907;29;20195;-74
2023/10/02 11:48:20;;;;;;;5.68;2.10;;;30.70;79.90;;;;;;4932643;29;20203;-77
2023/10/02 11:51:02;;;;;;;8.65;2.30;;;31.50;77.30;;;;;;4917472;29;20266;-84
2023/10/02 11:53:45;;;;;;;5.45;2.10;;;31.60;74.30;;;;;;4934570;29;20203;-84
2023/10/02 11:56:48;;;;;;;5.35;2.40;;;30.90;75.00;;;;;;4933542;29;20238;-76
2023/10/02 11:59:34;;;;;;;4.40;2.15;;;29.10;78.10;;;;;;4917761;29;20191;-76
2023/10/02 12:02:28;;;;;;;5.65;2.60;;;28.70;79.50;;;;;;4902865;29;20518;-85
2023/10/02 12:05:07;;;;;;;6.78;2.33;;;28.20;80.70;;;;;;4909353;29;20194;-82
2023/10/02 12:07:42;;;;;;;8.25;2.67;;;27.90;81.60;;;;;;4935813;29;20215;-86
2023/10/02 12:10:16;;;;;;;5.80;2.42;;;27.90;81.70;;;;;;4936401;29;20259;-83
2023/10/02 12:12:50;;;;;;;5.45;2.40;;;28.40;82.20;;;;;;4935201;29;20179;-84
2023/10/02 12:15:19;;;;;;;5.05;2.45;;;28.10;81.00;;;;;;4917703;29;20726;-86
2023/10/02 12:17:50;;;;;;;7.50;2.78;;;27.00;82.90;;;;;;4934882;29;20225;-84
2023/10/02 12:20:22;;;;;;;5.45;2.53;;;27.10;84.40;;;;;;4917371;29;20285;-86
2023/10/02 12:22:56;;;;;;;5.10;2.15;;;27.60;84.30;;;;;;4934611;29;20202;-85
2023/10/02 12:25:27;;;;;;;4.70;2.47;;;27.60;82.70;;;;;;4917965;29;20198;-86
2023/10/02 12:28:00;;;;;;;5.78;2.47;;;27.10;84.10;;;;;;4934314;29;20631;-86
2023/10/02 12:30:36;;;;;;;7.05;2.50;;;26.60;85.10;;;;;;4934130;29;20248;-80
2023/10/02 12:33:09;;;;;;;4.88;2.65;;;27.20;84.80;;;;;;4917976;29;20254;-76
2023/10/02 12:35:39;;;;;;;4.80;2.60;;;28.10;83.20;;;;;;4934391;29;20253;-84
2023/10/02 12:38:13;;;;;;;4.93;2.47;;;28.80;81.20;;;;;;4915382;29;20353;-84
2023/10/02 12:40:51;;;;;;;6.10;2.65;;;29.20;80.20;;;;;;4916688;29;20203;-85
2023/10/02 12:43:19;;;;;;;6.22;2.40;;;28.90;79.80;;;;;;4935842;29;20254;-83
2023/10/02 12:45:47;;;;;;;5.75;2.70;;;28.70;80.10;;;;;;4904993;29;20290;-85
2023/10/02 12:48:17;;;;;;;4.82;2.30;;;28.60;79.90;;;;;;4938773;29;20246;-84
2023/10/02 12:50:48;;;;;;;7.82;2.70;;;28.50;80.30;;;;;;4937114;29;20212;-85
2023/10/02 12:53:17;;;;;;;6.95;2.28;;;28.30;81.20;;;;;;4937223;29;20215;-84
2023/10/02 12:55:55;;;;;;;5.82;2.53;;;27.10;83.20;;;;;;4903834;29;20194;-76
2023/10/02 12:58:28;;;;;;;5.40;2.47;;;26.80;84.00;;;;;;4936935;29;20669;-85
2023/10/02 13:01:18;;;;;;;7.32;2.72;;;26.10;85.90;;;;;;4840260;29;20790;-85
2023/10/02 13:03:50;;;;;;;8.18;3.00;;;26.00;87.40;;;;;;4839962;29;20291;-85
2023/10/02 13:06:18;;;;;;;7.65;3.00;;;25.40;88.50;;;;;;4826017;29;20230;-76
2023/10/02 13:08:50;;;;;;;7.57;3.00;;;24.70;90.30;;;;;;4839360;29;20670;-77
2023/10/02 13:11:18;;;;;;;7.85;2.88;;;24.10;91.40;;;;;;4841623;29;20286;-85
2023/10/02 13:13:51;;;;;;;5.97;2.90;;;24.00;91.70;;;;;;4842047;29;20529;-87
2023/10/02 13:16:24;;;;;;;6.03;2.33;;;23.50;92.40;;;;;;4825961;29;20214;-86
2023/10/02 13:19:27;;;;;;;6.83;2.80;;;23.60;93.00;;;;;;4878114;29;20293;-78
2023/10/02 13:21:56;;;;;;;6.10;2.80;;;23.40;93.30;;;;;;4936371;29;20214;-85
2023/10/02 13:24:49;;;;;;;5.77;2.87;;;23.20;93.70;;;;;;4932804;29;20289;-77
2023/10/02 13:27:31;;;;;;;7.83;3.33;;;23.10;94.20;;;;;;4935958;29;20203;-78
2023/10/02 13:30:11;;;;;;;6.47;3.00;;;22.70;94.80;;;;;;4935117;29;20672;-78
2023/10/02 13:32:40;;;;;;;6.67;2.97;;;22.90;95.10;;;;;;4919223;29;20203;-77
2023/10/02 13:35:32;;;;;;;8.17;2.97;;;22.80;95.30;;;;;;4935508;29;20171;-77
2023/10/02 13:38:01;;;;;;;8.13;3.37;;;22.80;95.50;;;;;;4919203;29;20238;-77
2023/10/02 13:40:31;;;;;;;7.33;2.93;;;22.70;96.10;;;;;;4937052;29;20270;-86
2023/10/02 13:43:00;;;;;;;11.20;3.13;;;22.60;96.40;;;;;;4936591;29;20685;-77
2023/10/02 13:45:38;;;;;;;6.87;2.97;;;22.20;97.00;;;;;;4918511;29;20198;-78
2023/10/02 13:48:11;;;;;;;7.23;2.90;;;22.20;97.40;;;;;;4936337;29;20509;-77
2023/10/02 13:53:43;;;;;;;6.73;2.70;;;22.40;97.50;;;;;;4897828;29;20660;-87
2023/10/02 13:56:20;;;;;;;5.80;2.57;;;22.50;97.50;;;;;;4897904;29;20204;-87
2023/10/02 13:59:04;;;;;;;7.47;2.80;;;22.90;97.60;;;;;;4898261;29;20239;-89
2023/10/02 14:01:36;;;;;;;6.77;3.20;;;23.30;97.00;;;;;;4896417;29;20196;-78
2023/10/02 14:04:06;;;;;;;6.07;3.00;;;23.40;96.70;;;;;;4895711;29;20212;-77
2023/10/02 14:06:35;;;;;;;7.60;2.87;;;23.30;96.90;;;;;;4895465;29;20758;-76
2023/10/02 14:09:10;;;;;;;6.97;3.03;;;23.10;96.80;;;;;;4880750;29;20212;-78
2023/10/02 14:11:39;;;;;;;7.33;3.30;;;22.90;96.90;;;;;;4895423;29;20204;-78
2023/10/02 14:14:11;;;;;;;6.63;3.40;;;22.80;97.30;;;;;;4895538;29;20209;-87
2023/10/02 14:16:44;;;;;;;8.13;3.13;;;22.70;97.70;;;;;;4897456;29;20286;-78
2023/10/02 14:19:16;;;;;;;7.00;3.17;;;22.60;98.00;;;;;;4894192;29;20294;-77
2023/10/02 14:21:45;;;;;;;6.73;3.20;;;22.60;97.80;;;;;;4894877;29;20224;-79
2023/10/02 14:24:19;;;;;;;6.30;2.80;;;22.40;98.30;;;;;;4894588;29;20295;-79
2023/10/02 14:27:14;;;;;;;9.10;2.87;;;22.40;98.90;;;;;;4894372;29;20361;-75
2023/10/02 14:29:50;;;;;;;9.10;3.00;;;22.40;98.80;;;;;;4898928;29;20195;-78
2023/10/02 14:32:21;;;;;;;7.10;3.00;;;22.50;98.90;;;;;;4917805;29;20207;-77
2023/10/02 14:34:57;;;;;;;6.23;3.00;;;22.40;99.00;;;;;;4918078;29;20616;-86
2023/10/02 14:37:38;;;;;;;7.83;3.23;;;22.30;99.20;;;;;;4921212;29;20238;-86
2023/10/02 14:40:10;;;;;;;6.90;3.13;;;22.20;99.40;;;;;;4936116;29;20207;-86
2023/10/02 14:42:40;;;;;;;8.67;3.20;;;22.10;99.80;;;;;;4937932;29;20209;-87
2023/10/02 14:45:09;;;;;;;12.37;3.47;;;22.10;99.80;;;;;;4938035;29;20195;-87
2023/10/02 14:47:46;;;;;;;6.83;3.30;;;22.10;99.90;;;;;;4938367;29;20199;-86
2023/10/02 14:50:22;;;;;;;6.30;3.07;;;22.10;99.90;;;;;;4923216;29;20289;-76
2023/10/02 14:52:57;;;;;;;8.60;3.17;;;22.20;99.90;;;;;;4934380;29;20187;-76
2023/10/02 14:55:28;;;;;;;7.53;2.80;;;22.20;99.90;;;;;;4934701;29;20202;-76
2023/10/02 14:57:56;;;;;;;9.40;3.10;;;22.20;99.90;;;;;;4934442;29;20729;-77
2023/10/02 15:00:34;;;;;;;9.17;3.07;;;22.20;99.90;;;;;;4934334;29;20281;-77
2023/10/02 15:03:04;;;;;;;5.73;3.07;;;22.20;99.90;;;;;;4901753;29;20658;-75
2023/10/02 15:05:33;;;;;;;9.50;3.17;;;22.00;99.90;;;;;;4938260;29;20199;-87
2023/10/02 15:08:12;;;;;;;7.40;3.10;;;22.00;99.90;;;;;;4925398;29;20561;-84
2023/10/02 15:10:56;;;;;;;6.50;3.37;;;22.10;99.90;;;;;;4917517;29;20681;-76
2023/10/02 15:13:38;;;;;;;8.10;3.60;;;21.90;99.90;;;;;;4933176;29;20223;-76
2023/10/02 15:16:17;;;;;;;10.13;3.60;;;21.80;99.90;;;;;;4918151;29;20190;-87
2023/10/02 15:18:53;;;;;;;7.40;3.10;;;21.70;99.90;;;;;;4935711;29;20229;-87